createdAt,value
2022-12-14T00:07:30.738Z,9.7
2022-12-14T00:17:30.737Z,8.8
2022-12-14T00:27:30.741Z,10.4
2022-12-14T00:37:30.842Z,9.1
2022-12-14T00:47:31.156Z,10.1
2022-12-14T00:57:30.747Z,9.4
2022-12-14T01:07:30.748Z,9.5
2022-12-14T01:17:30.751Z,9.1
2022-12-14T01:27:30.746Z,9.0
2022-12-14T01:37:30.754Z,8.9
2022-12-14T01:47:30.752Z,8.2
2022-12-14T01:57:30.757Z,9.3
2022-12-14T02:07:30.759Z,8.1
2022-12-14T02:17:30.759Z,8.1
2022-12-14T02:27:30.764Z,8.1
2022-12-14T02:37:30.785Z,7.7
2022-12-14T02:47:30.766Z,8.1
2022-12-14T02:57:30.773Z,7.6
2022-12-14T03:07:30.774Z,8.0
2022-12-14T03:17:30.775Z,7.6
2022-12-14T03:27:30.786Z,7.6
2022-12-14T03:37:30.780Z,8.2
2022-12-14T03:47:30.782Z,7.9
2022-12-14T03:57:30.782Z,7.8
2022-12-14T04:07:30.790Z,7.7
2022-12-14T04:17:30.792Z,7.4
2022-12-14T04:27:30.796Z,7.3
2022-12-14T04:37:30.825Z,8.0
2022-12-14T04:47:30.804Z,7.3
2022-12-14T04:57:30.794Z,6.3
2022-12-14T05:07:30.796Z,7.3
2022-12-14T05:17:30.798Z,7.4
2022-12-14T05:27:30.798Z,7.1
2022-12-14T05:37:30.809Z,6.5
2022-12-14T05:47:30.804Z,7.5
2022-12-14T05:57:30.804Z,7.1
2022-12-14T06:07:30.814Z,6.5
2022-12-14T06:17:30.820Z,7.1
2022-12-14T06:37:30.816Z,6.7
2022-12-14T06:47:30.865Z,6.2
2022-12-14T06:57:30.822Z,6.1
2022-12-14T07:07:30.827Z,6.4
2022-12-14T07:17:30.819Z,6.0
2022-12-14T07:27:30.828Z,6.0
2022-12-14T07:37:30.831Z,6.4
2022-12-14T07:47:30.823Z,6.4
2022-12-14T07:57:30.823Z,5.7
2022-12-14T08:07:30.925Z,4.6
2022-12-14T08:17:30.844Z,4.4
2022-12-14T08:27:30.843Z,5.6
2022-12-14T08:37:30.845Z,6.5
2022-12-14T08:47:30.845Z,6.5
2022-12-14T08:57:30.846Z,5.5
2022-12-14T09:07:30.841Z,6.3
2022-12-14T09:17:30.853Z,6.1
2022-12-14T09:27:30.851Z,7.1
2022-12-14T09:37:30.850Z,6.8
2022-12-14T09:47:30.851Z,7.4
2022-12-14T09:57:30.847Z,7.1
2022-12-14T10:07:34.677Z,7.3
2022-12-14T10:17:30.859Z,6.9
2022-12-14T10:28:09.290Z,7.4
2022-12-14T10:37:30.863Z,7.2
2022-12-14T10:47:30.867Z,7.0
2022-12-14T10:57:30.887Z,6.1
2022-12-14T11:07:30.874Z,6.1
2022-12-14T11:17:31.063Z,5.7
2022-12-14T11:27:30.884Z,6.1
2022-12-14T11:37:30.890Z,5.6
2022-12-14T11:47:30.893Z,6.2
2022-12-14T11:57:30.986Z,5.7
2022-12-14T12:07:30.890Z,11.8
2022-12-14T12:17:30.899Z,6.3
2022-12-14T12:27:30.910Z,6.0
2022-12-14T12:37:30.807Z,6.2
2022-12-14T12:47:47.140Z,5.9
2022-12-14T12:57:30.913Z,5.7
2022-12-14T13:07:30.992Z,6.1
2022-12-14T13:17:30.825Z,6.0
2022-12-14T13:27:30.928Z,6.2
2022-12-14T13:37:30.930Z,5.7
2022-12-14T13:47:30.885Z,5.4
2022-12-14T13:57:30.931Z,6.5
2022-12-14T14:07:30.904Z,5.6
2022-12-14T14:17:31.000Z,5.9
2022-12-14T14:27:30.950Z,5.7
2022-12-14T14:37:30.948Z,6.1
2022-12-14T14:47:30.994Z,6.1
2022-12-14T14:57:30.938Z,5.6
2022-12-14T15:07:30.964Z,5.8
2022-12-14T15:17:30.942Z,6.1
2022-12-14T15:27:30.943Z,6.3
2022-12-14T15:37:30.954Z,6.9
2022-12-14T15:47:30.947Z,6.5
2022-12-14T15:57:30.956Z,6.7
2022-12-14T16:07:30.962Z,8.1
2022-12-14T16:17:30.963Z,9.6
2022-12-14T16:27:30.956Z,8.9
2022-12-14T16:37:34.487Z,10.0
2022-12-14T16:47:30.964Z,10.7
2022-12-14T16:57:30.956Z,11.4
2022-12-14T17:07:30.960Z,10.6
2022-12-14T17:17:30.972Z,8.6
2022-12-14T17:27:30.967Z,7.4
2022-12-14T17:37:36.787Z,12.0
2022-12-14T17:47:30.972Z,8.5
2022-12-14T17:57:30.969Z,9.3
2022-12-14T18:07:30.961Z,9.8
2022-12-14T18:17:30.993Z,10.3
2022-12-14T18:27:31.106Z,19.7
2022-12-14T18:37:33.184Z,17.1
2022-12-14T18:47:42.187Z,10.1
2022-12-14T18:57:30.975Z,10.5
2022-12-14T19:07:30.975Z,9.8
2022-12-14T19:17:30.974Z,9.7
2022-12-14T19:28:15.574Z,9.2
2022-12-14T19:37:30.976Z,9.3
2022-12-14T19:47:30.976Z,9.5
2022-12-14T19:57:30.975Z,9.2
2022-12-14T20:07:30.975Z,11.5
2022-12-14T20:17:30.980Z,9.5
2022-12-14T20:27:33.798Z,9.7
2022-12-14T20:37:31.008Z,11.7
2022-12-14T20:47:31.003Z,12.8
2022-12-14T20:57:30.978Z,12.5
2022-12-14T21:07:30.991Z,11.3
2022-12-14T21:17:31.036Z,11.4
2022-12-14T21:37:30.977Z,12.4
2022-12-14T21:47:31.005Z,12.1
2022-12-14T21:57:30.993Z,12.6
2022-12-14T22:07:31.003Z,12.5
2022-12-14T22:17:30.999Z,12.9
2022-12-14T22:27:31.014Z,11.2
2022-12-14T22:37:31.033Z,12.6
2022-12-14T22:47:31.002Z,12.8
2022-12-14T22:57:31.002Z,13.5
2022-12-14T23:07:31.116Z,12.0
2022-12-14T23:17:31.008Z,13.6
2022-12-14T23:27:30.999Z,11.9
2022-12-14T23:37:31.005Z,13.1
2022-12-14T23:47:31.014Z,13.5
2022-12-14T23:57:31.099Z,12.8
